createdAt,value
2018-03-16T00:02:26.565Z,83.50
2018-03-16T00:04:54.692Z,83.70
2018-03-16T00:07:23.624Z,84.50
2018-03-16T00:09:52.714Z,85.40
2018-03-16T00:12:20.993Z,85.40
2018-03-16T00:14:49.224Z,86.00
2018-03-16T00:17:17.292Z,86.80
2018-03-16T00:19:46.230Z,88.40
2018-03-16T00:22:16.141Z,87.70
2018-03-16T00:24:45.032Z,88.40
2018-03-16T00:27:13.189Z,88.40
2018-03-16T00:29:41.344Z,88.60
2018-03-16T00:32:10.233Z,88.90
2018-03-16T00:34:39.165Z,89.30
2018-03-16T00:37:07.274Z,89.20
2018-03-16T00:39:35.397Z,89.40
2018-03-16T00:42:03.570Z,89.80
2018-03-16T00:44:32.562Z,90.20
2018-03-16T00:47:01.455Z,90.30
2018-03-16T00:49:29.624Z,90.30
2018-03-16T00:51:58.515Z,90.60
2018-03-16T00:54:26.699Z,90.60
2018-03-16T00:56:54.796Z,90.80
2018-03-16T00:59:23.041Z,90.80
2018-03-16T01:01:51.207Z,90.90
2018-03-16T01:04:19.310Z,91.00
2018-03-16T01:06:47.441Z,91.10
2018-03-16T01:09:15.619Z,91.20
2018-03-16T01:11:43.774Z,91.20
2018-03-16T01:14:11.920Z,91.30
2018-03-16T01:16:40.810Z,91.40
2018-03-16T01:19:08.925Z,91.30
2018-03-16T01:21:37.048Z,91.40
2018-03-16T01:24:05.271Z,91.40
2018-03-16T01:26:34.130Z,91.30
2018-03-16T01:29:03.049Z,91.30
2018-03-16T01:31:31.151Z,91.30
2018-03-16T01:33:59.285Z,91.40
2018-03-16T01:36:27.422Z,91.30
2018-03-16T01:38:55.595Z,91.40
2018-03-16T01:41:24.477Z,91.50
2018-03-16T01:43:52.617Z,91.30
2018-03-16T01:46:20.732Z,91.20
2018-03-16T01:48:49.612Z,91.20
2018-03-16T01:51:17.748Z,91.20
2018-03-16T01:53:45.968Z,91.40
2018-03-16T01:56:14.836Z,91.40
2018-03-16T01:58:43.039Z,91.40
2018-03-16T02:01:11.911Z,91.30
2018-03-16T02:03:40.868Z,91.60
2018-03-16T02:06:08.978Z,91.30
2018-03-16T02:08:37.878Z,91.30
2018-03-16T02:11:06.853Z,91.20
2018-03-16T02:13:35.071Z,91.50
2018-03-16T02:16:03.961Z,91.10
2018-03-16T02:18:32.055Z,91.10
2018-03-16T02:21:00.210Z,91.00
2018-03-16T02:23:28.377Z,90.80
2018-03-16T02:25:57.236Z,90.80
2018-03-16T02:28:25.366Z,90.80
2018-03-16T02:30:53.477Z,90.70
2018-03-16T02:33:22.360Z,90.70
2018-03-16T02:35:51.482Z,90.80
2018-03-16T02:38:19.770Z,90.70
2018-03-16T02:40:47.900Z,90.70
2018-03-16T02:43:16.014Z,90.90
2018-03-16T02:45:44.189Z,90.90
2018-03-16T02:48:12.359Z,91.00
2018-03-16T02:50:40.496Z,90.90
2018-03-16T02:53:09.410Z,90.90
2018-03-16T02:55:37.517Z,91.00
2018-03-16T02:58:05.743Z,91.00
2018-03-16T03:00:34.667Z,91.00
2018-03-16T03:03:02.782Z,91.00
2018-03-16T03:05:31.704Z,91.20
2018-03-16T03:07:59.848Z,91.10
2018-03-16T03:10:28.785Z,91.10
2018-03-16T03:12:56.916Z,91.10
2018-03-16T03:15:25.840Z,91.10
2018-03-16T03:17:53.943Z,91.00
2018-03-16T03:20:22.147Z,91.00
2018-03-16T03:22:51.016Z,91.00
2018-03-16T03:25:19.248Z,91.00
2018-03-16T03:27:48.093Z,91.10
2018-03-16T03:30:16.985Z,91.10
2018-03-16T03:32:45.943Z,91.40
2018-03-16T03:35:14.102Z,91.40
2018-03-16T03:37:42.264Z,91.10
2018-03-16T03:40:10.437Z,91.10
2018-03-16T03:42:39.426Z,91.00
2018-03-16T03:45:08.424Z,91.00
2018-03-16T03:47:36.531Z,91.00
2018-03-16T03:50:04.765Z,91.10
2018-03-16T03:52:33.613Z,91.20
2018-03-16T03:55:02.608Z,91.20
2018-03-16T03:57:31.588Z,91.30
2018-03-16T03:59:59.830Z,91.30
2018-03-16T04:02:27.925Z,91.40
2018-03-16T04:04:56.107Z,91.40
2018-03-16T04:07:24.998Z,91.70
2018-03-16T04:09:53.115Z,91.40
2018-03-16T04:12:21.234Z,91.40
2018-03-16T04:14:49.568Z,91.40
2018-03-16T04:17:18.455Z,91.30
2018-03-16T04:19:47.341Z,91.30
2018-03-16T04:22:15.469Z,91.30
2018-03-16T04:24:44.355Z,91.60
2018-03-16T04:27:12.475Z,91.30
2018-03-16T04:29:40.600Z,91.20
2018-03-16T04:32:08.721Z,91.20
2018-03-16T04:34:36.888Z,91.20
2018-03-16T04:37:05.847Z,91.20
2018-03-16T04:39:34.023Z,91.20
2018-03-16T04:42:02.536Z,91.20
2018-03-16T04:44:30.620Z,91.20
2018-03-16T04:46:58.776Z,91.20
2018-03-16T04:49:27.666Z,91.10
2018-03-16T04:51:56.615Z,91.00
2018-03-16T04:54:24.750Z,91.00
2018-03-16T04:56:52.902Z,91.00
2018-03-16T04:59:21.893Z,90.90
2018-03-16T05:01:50.749Z,90.80
2018-03-16T05:04:19.632Z,90.80
2018-03-16T05:06:48.527Z,90.70
2018-03-16T05:09:16.632Z,90.70
2018-03-16T05:11:44.772Z,90.70
2018-03-16T05:14:13.653Z,90.80
2018-03-16T05:16:42.545Z,90.70
2018-03-16T05:19:10.683Z,90.70
2018-03-16T05:21:38.930Z,90.50
2018-03-16T05:24:07.031Z,90.60
2018-03-16T05:26:35.172Z,90.60
2018-03-16T05:29:03.257Z,90.60
2018-03-16T05:31:31.519Z,90.50
2018-03-16T05:34:00.508Z,90.60
2018-03-16T05:36:28.668Z,90.60
2018-03-16T05:38:57.570Z,90.30
2018-03-16T05:41:26.529Z,90.40
2018-03-16T05:43:55.458Z,90.20
2018-03-16T05:46:23.561Z,90.20
2018-03-16T05:48:51.769Z,90.30
2018-03-16T05:51:20.671Z,90.00
2018-03-16T05:53:49.575Z,89.50
2018-03-16T05:56:18.519Z,89.20
2018-03-16T05:58:46.630Z,89.20
2018-03-16T06:01:15.101Z,89.60
2018-03-16T06:03:43.205Z,89.00
2018-03-16T06:06:11.308Z,88.10
2018-03-16T06:08:39.535Z,88.10
2018-03-16T06:11:08.397Z,87.80
2018-03-16T06:13:37.276Z,87.60
2018-03-16T06:16:06.152Z,87.90
2018-03-16T06:18:35.206Z,88.00
2018-03-16T06:21:03.320Z,87.90
2018-03-16T06:23:31.539Z,87.80
2018-03-16T06:26:00.416Z,87.50
2018-03-16T06:28:28.602Z,87.50
2018-03-16T06:30:57.498Z,87.30
2018-03-16T06:33:25.665Z,87.30
2018-03-16T06:35:54.528Z,86.60
2018-03-16T06:38:22.678Z,86.60
2018-03-16T06:40:51.001Z,85.90
2018-03-16T06:43:19.885Z,85.70
2018-03-16T06:45:48.802Z,85.80
2018-03-16T06:48:16.956Z,85.80
2018-03-16T06:50:45.859Z,85.50
2018-03-16T06:53:14.018Z,85.40
2018-03-16T06:55:42.227Z,85.40
2018-03-16T06:58:10.357Z,85.10
2018-03-16T07:00:38.536Z,85.00
2018-03-16T07:03:07.532Z,84.40
2018-03-16T07:05:35.700Z,84.40
2018-03-16T07:08:04.586Z,83.50
2018-03-16T07:10:33.464Z,83.60
2018-03-16T07:13:01.650Z,83.60
2018-03-16T07:15:35.400Z,82.60
2018-03-16T07:18:03.533Z,82.60
2018-03-16T07:20:31.697Z,81.80
2018-03-16T07:23:00.687Z,82.10
2018-03-16T07:25:29.658Z,82.10
2018-03-16T07:27:58.569Z,81.60
2018-03-16T07:30:27.424Z,81.50
2018-03-16T07:32:56.329Z,81.10
2018-03-16T07:35:24.634Z,81.00
2018-03-16T07:37:52.753Z,81.00
2018-03-16T07:40:21.275Z,80.50
2018-03-16T07:42:50.220Z,80.80
2018-03-16T07:45:18.285Z,80.80
2018-03-16T07:47:46.491Z,81.10
2018-03-16T07:50:14.610Z,80.30
2018-03-16T07:52:42.718Z,80.40
2018-03-16T07:55:11.611Z,79.10
2018-03-16T07:57:40.638Z,79.10
2018-03-16T08:00:08.779Z,78.90
2018-03-16T08:02:37.649Z,78.30
2018-03-16T08:05:06.589Z,78.30
2018-03-16T08:07:34.726Z,77.50
2018-03-16T08:10:03.655Z,77.70
2018-03-16T08:12:31.833Z,77.70
2018-03-16T08:14:59.964Z,76.80
2018-03-16T08:17:28.165Z,75.60
2018-03-16T08:19:57.017Z,75.60
2018-03-16T08:22:25.940Z,74.20
2018-03-16T08:24:54.097Z,74.20
2018-03-16T08:27:22.985Z,72.20
2018-03-16T08:29:51.885Z,72.90
2018-03-16T08:32:20.005Z,73.00
2018-03-16T08:34:48.131Z,73.70
2018-03-16T08:37:16.415Z,73.10
2018-03-16T08:39:46.453Z,73.30
2018-03-16T08:42:14.611Z,73.30
2018-03-16T08:44:42.793Z,74.50
2018-03-16T08:47:10.897Z,73.40
2018-03-16T08:49:39.088Z,73.60
2018-03-16T08:52:07.969Z,72.60
2018-03-16T08:54:36.142Z,72.50
2018-03-16T08:57:04.207Z,72.20
2018-03-16T08:59:32.320Z,73.20
2018-03-16T09:02:00.463Z,71.80
2018-03-16T09:04:29.455Z,72.30
2018-03-16T09:06:58.485Z,71.10
2018-03-16T09:09:26.650Z,71.10
2018-03-16T09:11:55.645Z,68.00
2018-03-16T09:14:23.774Z,68.00
2018-03-16T09:16:52.680Z,67.50
2018-03-16T09:19:20.840Z,67.50
2018-03-16T09:21:49.766Z,65.70
2018-03-16T09:24:17.870Z,65.70
2018-03-16T09:26:46.010Z,65.60
2018-03-16T09:29:14.146Z,65.80
2018-03-16T09:31:43.063Z,65.60
2018-03-16T09:34:11.200Z,65.60
2018-03-16T09:36:40.118Z,64.70
2018-03-16T09:39:08.290Z,64.60
2018-03-16T09:41:36.416Z,64.90
2018-03-16T09:44:04.558Z,64.90
2018-03-16T09:46:32.705Z,64.60
2018-03-16T09:49:00.870Z,62.90
2018-03-16T09:51:29.009Z,63.50
2018-03-16T09:53:57.145Z,64.00
2018-03-16T09:56:25.511Z,63.60
2018-03-16T09:58:53.693Z,63.20
2018-03-16T10:01:21.842Z,63.10
2018-03-16T10:03:50.031Z,64.40
2018-03-16T10:06:18.203Z,62.10
2018-03-16T10:08:46.321Z,63.20
2018-03-16T10:11:14.448Z,62.90
2018-03-16T10:13:42.582Z,64.60
2018-03-16T10:16:11.487Z,62.80
2018-03-16T10:18:39.636Z,62.80
2018-03-16T10:21:08.524Z,63.80
2018-03-16T10:23:37.410Z,63.90
2018-03-16T10:26:06.325Z,64.00
2018-03-16T10:28:34.474Z,64.00
2018-03-16T10:31:02.624Z,63.20
2018-03-16T10:33:30.758Z,62.40
2018-03-16T10:35:58.862Z,61.50
2018-03-16T10:38:27.013Z,60.70
2018-03-16T10:40:55.134Z,61.10
2018-03-16T10:43:23.270Z,60.90
2018-03-16T10:45:51.388Z,61.40
2018-03-16T10:48:20.287Z,60.90
2018-03-16T10:50:49.184Z,61.40
2018-03-16T10:53:17.342Z,61.40
2018-03-16T10:55:46.262Z,62.60
2018-03-16T10:58:14.417Z,62.60
2018-03-16T11:00:48.072Z,63.20
2018-03-16T11:03:16.311Z,62.30
2018-03-16T11:05:50.076Z,61.10
2018-03-16T11:08:24.445Z,64.30
2018-03-16T11:10:52.574Z,64.30
2018-03-16T11:13:21.492Z,67.80
2018-03-16T11:15:50.380Z,68.30
2018-03-16T11:18:18.558Z,68.30
2018-03-16T11:20:46.733Z,67.60
2018-03-16T11:23:14.836Z,66.60
2018-03-16T11:25:42.991Z,65.60
2018-03-16T11:28:11.117Z,66.40
2018-03-16T11:30:39.274Z,64.90
2018-03-16T11:33:09.088Z,68.00
2018-03-16T11:35:38.090Z,68.80
2018-03-16T11:38:07.010Z,69.10
2018-03-16T11:40:35.397Z,69.20
2018-03-16T11:43:03.554Z,67.50
2018-03-16T11:45:31.674Z,66.20
2018-03-16T11:47:59.832Z,65.90
2018-03-16T11:50:27.957Z,63.70
2018-03-16T11:52:56.266Z,64.20
2018-03-16T11:55:24.401Z,65.00
2018-03-16T11:57:52.532Z,66.30
2018-03-16T12:00:20.758Z,66.50
2018-03-16T12:02:48.869Z,66.90
2018-03-16T12:05:17.073Z,66.50
2018-03-16T12:07:45.149Z,65.70
2018-03-16T12:10:14.039Z,64.00
2018-03-16T12:12:42.970Z,62.20
2018-03-16T12:15:11.112Z,62.20
2018-03-16T12:17:39.231Z,61.10
2018-03-16T12:20:07.393Z,62.60
2018-03-16T12:22:35.542Z,60.60
2018-03-16T12:25:03.691Z,59.70
2018-03-16T12:27:31.816Z,59.00
2018-03-16T12:29:59.993Z,58.00
2018-03-16T12:32:28.138Z,58.00
2018-03-16T12:34:56.265Z,59.20
2018-03-16T12:37:25.202Z,58.90
2018-03-16T12:39:53.292Z,58.90
2018-03-16T12:42:21.456Z,59.00
2018-03-16T12:44:49.587Z,59.30
2018-03-16T12:47:18.537Z,58.80
2018-03-16T12:49:46.633Z,58.80
2018-03-16T12:52:15.528Z,60.80
2018-03-16T12:54:44.559Z,60.20
2018-03-16T12:57:12.655Z,60.10
2018-03-16T12:59:40.846Z,58.20
2018-03-16T13:02:09.085Z,57.60
2018-03-16T13:04:37.194Z,56.80
2018-03-16T13:07:05.346Z,57.20
2018-03-16T13:09:33.497Z,57.60
2018-03-16T13:12:01.669Z,56.10
2018-03-16T13:14:29.845Z,57.30
2018-03-16T13:16:58.021Z,58.30
2018-03-16T13:19:26.186Z,58.90
2018-03-16T13:21:54.360Z,60.30
2018-03-16T13:24:22.498Z,62.30
2018-03-16T13:26:50.651Z,61.40
2018-03-16T13:29:18.875Z,61.10
2018-03-16T13:31:47.010Z,61.00
2018-03-16T13:34:15.898Z,58.80
2018-03-16T13:36:44.834Z,54.40
2018-03-16T13:41:43.129Z,50.00
2018-03-16T13:44:11.262Z,50.00
2018-03-16T13:46:40.173Z,52.00
2018-03-16T13:49:09.060Z,53.70
2018-03-16T13:51:37.351Z,53.60
2018-03-16T13:54:05.484Z,54.70
2018-03-16T13:56:33.690Z,50.40
2018-03-16T13:59:01.844Z,48.50
2018-03-16T14:01:30.766Z,49.70
2018-03-16T14:03:58.917Z,49.60
2018-03-16T14:06:27.082Z,47.30
2018-03-16T14:08:55.228Z,44.70
2018-03-16T14:11:24.120Z,45.60
2018-03-16T14:13:53.018Z,47.40
2018-03-16T14:16:21.157Z,47.40
2018-03-16T14:18:49.311Z,42.40
2018-03-16T14:21:17.428Z,38.30
2018-03-16T14:23:46.355Z,34.60
2018-03-16T14:26:14.534Z,34.40
2018-03-16T14:28:42.652Z,34.10
2018-03-16T14:31:10.842Z,31.70
2018-03-16T14:33:39.725Z,28.70
2018-03-16T14:36:07.862Z,28.60
2018-03-16T14:38:36.011Z,28.40
2018-03-16T14:41:04.179Z,26.70
2018-03-16T14:43:32.301Z,27.00
2018-03-16T14:46:00.569Z,26.60
2018-03-16T14:48:28.693Z,26.70
2018-03-16T14:50:56.864Z,29.00
2018-03-16T14:53:25.743Z,32.90
2018-03-16T14:55:53.945Z,32.90
2018-03-16T14:58:22.224Z,33.00
2018-03-16T15:00:50.373Z,34.90
2018-03-16T15:03:19.470Z,47.90
2018-03-16T15:05:47.640Z,47.80
2018-03-16T15:08:15.804Z,52.20
2018-03-16T15:10:43.974Z,55.60
2018-03-16T15:13:12.114Z,57.70
2018-03-16T15:15:41.048Z,61.40
2018-03-16T15:18:10.058Z,63.10
2018-03-16T15:20:38.313Z,63.00
2018-03-16T15:23:06.494Z,64.10
2018-03-16T15:25:34.663Z,64.50
2018-03-16T15:28:02.777Z,65.80
2018-03-16T15:30:30.911Z,67.20
2018-03-16T15:32:59.042Z,69.70
2018-03-16T15:35:27.965Z,72.10
2018-03-16T15:37:56.139Z,72.00
2018-03-16T15:40:24.310Z,72.90
2018-03-16T15:42:53.184Z,74.80
2018-03-16T15:45:22.090Z,74.90
2018-03-16T15:47:50.970Z,74.00
2018-03-16T15:50:19.102Z,74.00
2018-03-16T15:52:47.251Z,72.10
2018-03-16T15:55:15.394Z,70.50
2018-03-16T15:57:43.568Z,67.80
2018-03-16T16:00:11.743Z,67.00
2018-03-16T16:02:39.891Z,65.50
2018-03-16T16:05:08.042Z,64.30
2018-03-16T16:07:36.976Z,61.80
2018-03-16T16:10:05.111Z,61.70
2018-03-16T16:12:33.999Z,62.00
2018-03-16T16:15:02.911Z,62.60
2018-03-16T16:17:31.821Z,63.20
2018-03-16T16:19:59.989Z,63.20
2018-03-16T16:22:28.109Z,64.20
2018-03-16T16:24:56.266Z,64.90
2018-03-16T16:27:24.403Z,65.40
2018-03-16T16:29:52.577Z,66.00
2018-03-16T16:32:20.862Z,66.50
2018-03-16T16:34:49.004Z,67.10
2018-03-16T16:37:18.117Z,67.50
2018-03-16T16:39:46.416Z,67.40
2018-03-16T16:42:14.589Z,68.00
2018-03-16T16:44:42.719Z,68.70
2018-03-16T16:47:10.896Z,69.00
2018-03-16T16:49:39.798Z,69.30
2018-03-16T16:52:07.960Z,69.20
2018-03-16T16:54:36.061Z,71.50
2018-03-16T16:57:04.214Z,73.60
2018-03-16T16:59:33.109Z,77.40
2018-03-16T17:02:01.357Z,77.40
2018-03-16T17:04:29.555Z,77.40
2018-03-16T17:06:57.688Z,77.80
2018-03-16T17:09:25.824Z,78.10
2018-03-16T17:11:53.978Z,77.80
2018-03-16T17:14:22.140Z,77.40
2018-03-16T17:16:50.320Z,78.10
2018-03-16T17:19:18.405Z,78.40
2018-03-16T17:21:46.592Z,78.60
2018-03-16T17:24:14.740Z,79.00
2018-03-16T17:26:42.908Z,79.20
2018-03-16T17:29:11.050Z,79.00
2018-03-16T17:31:39.976Z,79.20
2018-03-16T17:34:08.238Z,79.20
2018-03-16T17:36:36.358Z,79.10
2018-03-16T17:39:04.613Z,79.20
2018-03-16T17:41:32.974Z,79.00
2018-03-16T17:44:01.214Z,79.40
2018-03-16T17:46:30.232Z,79.90
2018-03-16T17:48:58.370Z,79.20
2018-03-16T17:51:27.483Z,79.10
2018-03-16T17:53:55.614Z,79.10
2018-03-16T17:56:23.737Z,79.20
2018-03-16T17:58:51.926Z,79.40
2018-03-16T18:01:20.058Z,79.50
2018-03-16T18:03:48.980Z,79.50
2018-03-16T18:06:17.147Z,79.50
2018-03-16T18:08:45.283Z,79.50
2018-03-16T18:11:14.186Z,79.50
2018-03-16T18:13:43.106Z,79.50
2018-03-16T18:16:11.272Z,79.50
2018-03-16T18:18:39.391Z,79.60
2018-03-16T18:21:07.630Z,79.30
2018-03-16T18:23:35.775Z,79.20
2018-03-16T18:26:04.676Z,78.40
2018-03-16T18:28:32.839Z,78.40
2018-03-16T18:31:01.226Z,78.80
2018-03-16T18:33:29.384Z,78.80
2018-03-16T18:35:57.522Z,79.10
2018-03-16T18:38:25.670Z,79.00
2018-03-16T18:40:57.085Z,79.40
2018-03-16T18:43:25.968Z,79.50
2018-03-16T18:45:54.906Z,79.70
2018-03-16T18:48:23.030Z,79.70
2018-03-16T18:50:51.221Z,79.80
2018-03-16T18:53:19.497Z,79.80
2018-03-16T18:55:47.624Z,79.90
2018-03-16T18:58:16.562Z,80.20
2018-03-16T19:00:44.727Z,80.20
2018-03-16T19:03:13.718Z,80.90
2018-03-16T19:05:41.889Z,80.80
2018-03-16T19:08:10.882Z,81.40
2018-03-16T19:10:39.784Z,81.80
2018-03-16T19:13:07.923Z,81.80
2018-03-16T19:15:36.858Z,82.60
2018-03-16T19:18:05.005Z,82.60
2018-03-16T19:20:33.124Z,82.90
2018-03-16T19:23:01.311Z,83.20
2018-03-16T19:25:29.426Z,83.00
2018-03-16T19:27:57.633Z,82.80
2018-03-16T19:30:25.977Z,82.60
2018-03-16T19:32:54.144Z,82.70
2018-03-16T19:35:22.274Z,83.10
2018-03-16T19:37:50.507Z,83.30
2018-03-16T19:40:19.378Z,83.10
2018-03-16T19:42:47.539Z,82.90
2018-03-16T19:45:15.840Z,82.90
2018-03-16T19:47:43.977Z,83.10
2018-03-16T19:50:12.846Z,83.60
2018-03-16T19:52:41.149Z,83.60
2018-03-16T19:55:10.051Z,83.70
2018-03-16T19:57:38.228Z,83.70
2018-03-16T20:00:06.401Z,83.60
2018-03-16T20:02:34.674Z,83.80
2018-03-16T20:05:02.787Z,83.90
2018-03-16T20:07:30.898Z,84.00
2018-03-16T20:09:59.090Z,83.90
2018-03-16T20:12:27.263Z,84.20
2018-03-16T20:14:55.413Z,84.30
2018-03-16T20:17:23.712Z,84.10
2018-03-16T20:19:52.395Z,84.20
2018-03-16T20:22:22.200Z,84.40
2018-03-16T20:24:50.482Z,84.90
2018-03-16T20:27:18.767Z,84.20
2018-03-16T20:29:46.889Z,84.20
2018-03-16T20:32:15.321Z,84.30
2018-03-16T20:34:43.477Z,84.50
2018-03-16T20:37:11.632Z,83.70
2018-03-16T20:39:41.054Z,83.90
2018-03-16T20:42:09.175Z,83.80
2018-03-16T20:44:37.409Z,84.20
2018-03-16T20:47:05.672Z,84.00
2018-03-16T20:49:34.758Z,84.20
2018-03-16T20:52:03.144Z,84.10
2018-03-16T20:54:31.275Z,84.00
2018-03-16T20:56:59.413Z,83.90
2018-03-16T20:59:27.826Z,83.60
2018-03-16T21:01:56.041Z,83.90
2018-03-16T21:04:25.065Z,83.90
2018-03-16T21:06:53.352Z,83.90
2018-03-16T21:09:21.492Z,84.10
2018-03-16T21:11:49.732Z,84.90
2018-03-16T21:14:18.752Z,83.90
2018-03-16T21:16:46.895Z,83.90
2018-03-16T21:19:15.910Z,83.80
2018-03-16T21:21:44.034Z,83.80
2018-03-16T21:24:12.198Z,83.80
2018-03-16T21:26:40.415Z,83.50
2018-03-16T21:29:09.297Z,83.70
2018-03-16T21:31:38.321Z,83.70
2018-03-16T21:34:06.435Z,83.60
2018-03-16T21:36:35.489Z,84.30
2018-03-16T21:39:03.594Z,83.60
2018-03-16T21:41:31.821Z,83.70
2018-03-16T21:44:00.726Z,83.90
2018-03-16T21:46:28.883Z,83.90
2018-03-16T21:48:57.925Z,83.80
2018-03-16T21:51:26.092Z,83.80
2018-03-16T21:53:54.212Z,83.90
2018-03-16T21:56:22.383Z,83.50
2018-03-16T21:58:50.566Z,83.50
2018-03-16T22:01:41.769Z,83.20
2018-03-16T22:04:09.951Z,83.60
2018-03-16T22:06:38.113Z,83.70
2018-03-16T22:09:06.246Z,83.90
2018-03-16T22:11:34.415Z,83.80
2018-03-16T22:14:03.391Z,83.70
2018-03-16T22:16:32.214Z,83.70
2018-03-16T22:19:00.422Z,83.70
2018-03-16T22:21:28.532Z,83.60
2018-03-16T22:23:56.766Z,83.80
2018-03-16T22:26:25.594Z,84.00
2018-03-16T22:28:53.735Z,84.10
2018-03-16T22:31:21.906Z,84.30
2018-03-16T22:33:50.069Z,84.40
2018-03-16T22:36:18.993Z,84.60
2018-03-16T22:38:47.244Z,84.50
2018-03-16T22:41:15.350Z,84.70
2018-03-16T22:43:44.997Z,84.20
2018-03-16T22:46:13.114Z,84.20
2018-03-16T22:48:41.364Z,84.10
2018-03-16T22:51:09.489Z,84.00
2018-03-16T22:53:37.673Z,84.20
2018-03-16T22:56:07.517Z,84.20
2018-03-16T22:58:36.410Z,84.20
2018-03-16T23:01:05.122Z,84.20
2018-03-16T23:03:33.334Z,84.30
2018-03-16T23:06:02.344Z,84.30
2018-03-16T23:08:31.253Z,84.20
2018-03-16T23:10:59.397Z,84.20
2018-03-16T23:13:28.310Z,84.20
2018-03-16T23:15:57.295Z,83.90
2018-03-16T23:18:25.470Z,83.90
2018-03-16T23:20:54.327Z,83.50
2018-03-16T23:23:23.235Z,84.30
2018-03-16T23:25:51.362Z,83.60
2018-03-16T23:28:19.581Z,83.80
2018-03-16T23:30:48.486Z,84.20
2018-03-16T23:33:16.661Z,84.20
2018-03-16T23:35:44.777Z,84.10
2018-03-16T23:38:13.005Z,84.10
2018-03-16T23:40:41.893Z,84.30
2018-03-16T23:43:10.786Z,84.30
2018-03-16T23:45:38.919Z,84.30
2018-03-16T23:48:07.171Z,84.40
2018-03-16T23:50:35.371Z,84.60
2018-03-16T23:53:04.260Z,84.90
2018-03-16T23:55:33.180Z,85.10
2018-03-16T23:58:01.458Z,85.00
